createdAt,value
2017-09-22T00:01:43.778Z,18.00
2017-09-22T00:04:12.198Z,13.60
2017-09-22T00:06:39.715Z,15.65
2017-09-22T00:09:07.209Z,17.77
2017-09-22T00:11:34.730Z,16.40
2017-09-22T00:14:02.237Z,16.65
2017-09-22T00:16:29.754Z,18.17
2017-09-22T00:18:57.232Z,16.60
2017-09-22T00:21:26.725Z,16.67
2017-09-22T00:23:54.238Z,15.52
2017-09-22T00:26:21.747Z,16.70
2017-09-22T00:28:49.662Z,15.55
2017-09-22T00:31:18.117Z,15.93
2017-09-22T00:33:45.630Z,16.08
2017-09-22T00:36:13.120Z,15.45
2017-09-22T00:38:40.636Z,15.50
2017-09-22T00:41:08.182Z,16.73
2017-09-22T00:43:35.677Z,15.00
2017-09-22T00:46:03.631Z,15.57
2017-09-22T00:48:31.149Z,15.70
2017-09-22T00:50:58.628Z,15.68
2017-09-22T00:53:26.883Z,15.52
2017-09-22T00:55:56.342Z,15.07
2017-09-22T00:58:24.274Z,16.77
2017-09-22T01:00:51.824Z,15.30
2017-09-22T01:03:19.354Z,13.40
2017-09-22T01:05:46.859Z,14.77
2017-09-22T01:08:14.342Z,15.20
2017-09-22T01:10:42.250Z,15.80
2017-09-22T01:13:09.758Z,14.60
2017-09-22T01:15:39.023Z,14.77
2017-09-22T01:18:06.533Z,13.68
2017-09-22T01:20:34.042Z,13.00
2017-09-22T01:23:02.237Z,14.20
2017-09-22T01:25:31.320Z,13.62
2017-09-22T01:27:58.805Z,14.35
2017-09-22T01:30:26.313Z,13.55
2017-09-22T01:32:53.825Z,13.75
2017-09-22T01:35:21.328Z,14.40
2017-09-22T01:37:48.814Z,14.25
2017-09-22T01:40:16.929Z,13.70
2017-09-22T01:42:44.811Z,14.07
2017-09-22T01:45:12.314Z,14.23
2017-09-22T01:47:39.845Z,14.85
2017-09-22T01:50:07.378Z,14.52
2017-09-22T01:52:35.725Z,14.87
2017-09-22T01:55:04.024Z,14.50
2017-09-22T01:57:31.914Z,14.98
2017-09-22T01:59:59.464Z,14.07
2017-09-22T02:02:27.018Z,14.40
2017-09-22T02:04:56.501Z,14.77
2017-09-22T02:07:24.030Z,14.50
2017-09-22T02:09:52.353Z,15.10
2017-09-22T02:12:19.870Z,15.30
2017-09-22T02:14:47.759Z,15.75
2017-09-22T02:17:15.271Z,15.27
2017-09-22T02:19:42.771Z,15.30
2017-09-22T02:22:10.254Z,15.80
2017-09-22T02:24:37.767Z,15.18
2017-09-22T02:27:05.663Z,14.73
2017-09-22T02:29:33.184Z,15.07
2017-09-22T02:32:02.704Z,15.27
2017-09-22T02:34:30.606Z,14.25
2017-09-22T02:36:58.090Z,14.40
2017-09-22T02:39:25.593Z,14.35
2017-09-22T02:41:53.541Z,15.68
2017-09-22T02:44:21.438Z,14.68
2017-09-22T02:46:48.942Z,15.27
2017-09-22T02:49:16.451Z,14.00
2017-09-22T02:51:43.954Z,14.68
2017-09-22T02:54:12.411Z,15.25
2017-09-22T02:56:39.932Z,15.10
2017-09-22T02:59:07.411Z,14.75
2017-09-22T03:01:34.907Z,15.05
2017-09-22T03:04:02.425Z,15.07
2017-09-22T03:06:29.945Z,14.25
2017-09-22T03:08:57.440Z,14.73
2017-09-22T03:11:24.946Z,13.95
2017-09-22T03:13:52.447Z,15.32
2017-09-22T03:16:19.944Z,14.35
2017-09-22T03:18:47.439Z,16.52
2017-09-22T03:21:15.346Z,16.73
2017-09-22T03:23:42.837Z,16.80
2017-09-22T03:26:10.358Z,17.02
2017-09-22T03:28:37.904Z,17.33
2017-09-22T03:31:07.363Z,15.82
2017-09-22T03:33:34.863Z,16.10
2017-09-22T03:36:02.382Z,14.43
2017-09-22T03:38:29.866Z,14.50
2017-09-22T03:40:57.896Z,13.90
2017-09-22T03:43:25.467Z,13.13
2017-09-22T03:45:53.410Z,12.90
2017-09-22T03:48:20.915Z,12.70
2017-09-22T03:50:48.819Z,13.62
2017-09-22T03:53:16.323Z,14.30
2017-09-22T03:55:43.829Z,12.80
2017-09-22T03:58:11.338Z,13.85
2017-09-22T04:00:39.769Z,13.65
2017-09-22T04:03:07.268Z,12.70
2017-09-22T04:05:34.774Z,15.20
2017-09-22T04:08:02.258Z,14.20
2017-09-22T04:10:29.762Z,15.63
2017-09-22T04:12:57.783Z,14.50
2017-09-22T04:15:25.289Z,17.12
2017-09-22T04:17:53.222Z,15.10
2017-09-22T04:20:20.735Z,15.30
2017-09-22T04:22:48.231Z,16.00
2017-09-22T04:25:17.780Z,16.92
2017-09-22T04:27:45.292Z,16.73
2017-09-22T04:30:13.877Z,15.75
2017-09-22T04:32:42.144Z,15.45
2017-09-22T04:35:09.631Z,14.80
2017-09-22T04:37:37.181Z,12.70
2017-09-22T04:40:05.671Z,13.25
2017-09-22T04:42:33.638Z,14.55
2017-09-22T04:45:02.038Z,14.35
2017-09-22T04:47:29.919Z,13.75
2017-09-22T04:49:57.426Z,14.52
2017-09-22T04:52:24.935Z,13.10
2017-09-22T04:54:52.473Z,12.75
2017-09-22T04:57:20.358Z,13.90
2017-09-22T04:59:48.708Z,13.98
2017-09-22T05:02:16.631Z,13.50
2017-09-22T05:04:44.139Z,15.10
2017-09-22T05:07:12.043Z,15.75
2017-09-22T05:09:40.451Z,13.95
2017-09-22T05:12:10.003Z,15.60
2017-09-22T05:14:37.490Z,14.55
2017-09-22T05:17:06.175Z,15.52
2017-09-22T05:19:34.663Z,14.25
2017-09-22T05:22:03.083Z,14.50
2017-09-22T05:24:30.988Z,13.40
2017-09-22T05:26:58.494Z,14.00
2017-09-22T05:29:26.004Z,14.10
2017-09-22T05:31:53.496Z,13.23
2017-09-22T05:34:21.082Z,13.48
2017-09-22T05:36:48.973Z,13.30
2017-09-22T05:39:17.444Z,13.43
2017-09-22T05:41:44.974Z,15.98
2017-09-22T05:44:12.482Z,15.10
2017-09-22T05:46:39.983Z,15.02
2017-09-22T05:49:07.548Z,13.45
2017-09-22T05:51:35.040Z,13.95
2017-09-22T05:54:02.564Z,13.23
2017-09-22T05:56:30.088Z,14.68
2017-09-22T05:58:57.692Z,14.05
2017-09-22T06:01:25.194Z,15.55
2017-09-22T06:03:52.715Z,14.70
2017-09-22T06:06:22.537Z,14.68
2017-09-22T06:08:52.454Z,16.40
2017-09-22T06:11:20.165Z,15.15
2017-09-22T06:13:58.018Z,14.85
2017-09-22T06:16:25.746Z,13.18
2017-09-22T06:18:55.732Z,12.93
2017-09-22T06:21:23.348Z,13.52
2017-09-22T06:23:52.668Z,14.05
2017-09-22T06:26:20.287Z,13.62
2017-09-22T06:28:50.440Z,12.50
2017-09-22T06:31:18.031Z,14.18
2017-09-22T06:33:47.502Z,13.82
2017-09-22T06:36:18.434Z,13.13
2017-09-22T06:38:46.032Z,13.85
2017-09-22T06:41:13.625Z,14.18
2017-09-22T06:43:41.641Z,13.95
2017-09-22T06:46:10.057Z,14.00
2017-09-22T06:48:39.550Z,14.70
2017-09-22T06:51:07.116Z,15.32
2017-09-22T06:53:35.845Z,15.90
2017-09-22T06:56:03.446Z,15.18
2017-09-22T06:58:31.038Z,14.90
2017-09-22T07:00:58.617Z,15.57
2017-09-22T07:03:26.290Z,13.60
2017-09-22T07:05:53.906Z,15.38
2017-09-22T07:08:21.904Z,14.48
2017-09-22T07:10:49.536Z,16.08
2017-09-22T07:13:17.230Z,14.23
2017-09-22T07:15:44.805Z,14.10
2017-09-22T07:18:13.394Z,15.07
2017-09-22T07:20:41.059Z,13.93
2017-09-22T07:23:10.649Z,14.57
2017-09-22T07:25:39.226Z,15.75
2017-09-22T07:28:06.819Z,15.80
2017-09-22T07:30:34.492Z,15.45
2017-09-22T07:33:07.203Z,16.00
2017-09-22T07:35:34.909Z,20.05
2017-09-22T07:38:02.519Z,19.45
2017-09-22T07:40:30.102Z,17.35
2017-09-22T07:42:57.710Z,18.85
2017-09-22T07:45:26.839Z,16.50
2017-09-22T07:47:54.463Z,16.52
2017-09-22T07:50:25.106Z,18.10
2017-09-22T07:52:52.634Z,19.90
2017-09-22T07:55:20.193Z,18.30
2017-09-22T07:57:47.694Z,16.02
2017-09-22T08:00:15.213Z,16.52
2017-09-22T08:02:42.726Z,18.83
2017-09-22T08:05:11.711Z,18.52
2017-09-22T08:07:39.223Z,18.10
2017-09-22T08:10:06.723Z,19.42
2017-09-22T08:12:36.189Z,18.45
2017-09-22T08:15:03.685Z,19.52
2017-09-22T08:17:33.159Z,16.85
2017-09-22T08:20:01.008Z,18.70
2017-09-22T08:22:28.525Z,18.50
2017-09-22T08:24:56.029Z,19.55
2017-09-22T08:27:23.542Z,18.15
2017-09-22T08:29:51.438Z,17.00
2017-09-22T08:32:18.952Z,18.30
2017-09-22T08:34:47.798Z,18.80
2017-09-22T08:37:15.296Z,16.95
2017-09-22T08:39:42.827Z,17.50
2017-09-22T08:42:10.321Z,17.35
2017-09-22T08:44:39.780Z,16.77
2017-09-22T08:47:07.304Z,17.40
2017-09-22T08:49:34.834Z,17.15
2017-09-22T08:52:02.358Z,17.20
2017-09-22T08:54:29.851Z,19.83
2017-09-22T08:56:57.366Z,17.75
2017-09-22T08:59:24.870Z,16.77
2017-09-22T09:01:52.761Z,15.85
2017-09-22T09:04:20.275Z,16.83
2017-09-22T09:06:47.767Z,16.12
2017-09-22T09:09:15.714Z,17.73
2017-09-22T09:11:44.159Z,16.75
2017-09-22T09:14:11.666Z,14.32
2017-09-22T09:16:39.564Z,16.48
2017-09-22T09:19:08.279Z,14.57
2017-09-22T09:21:36.767Z,14.73
2017-09-22T09:24:04.264Z,15.38
2017-09-22T09:26:33.347Z,14.55
2017-09-22T09:29:02.351Z,12.97
2017-09-22T09:31:30.249Z,13.40
2017-09-22T09:33:57.759Z,13.48
2017-09-22T09:36:25.670Z,13.88
2017-09-22T09:38:53.192Z,15.05
2017-09-22T09:41:21.095Z,13.30
2017-09-22T09:43:48.619Z,14.07
2017-09-22T09:46:16.548Z,13.73
2017-09-22T09:48:44.073Z,12.43
2017-09-22T09:51:12.970Z,14.15
2017-09-22T09:53:42.475Z,12.95
2017-09-22T09:56:10.910Z,11.70
2017-09-22T09:58:38.818Z,12.67
2017-09-22T10:01:06.330Z,12.13
2017-09-22T10:03:34.683Z,11.40
2017-09-22T10:06:02.166Z,11.30
2017-09-22T10:08:30.089Z,12.40
2017-09-22T10:10:57.599Z,11.73
2017-09-22T10:13:26.431Z,10.90
2017-09-22T10:15:55.938Z,10.13
2017-09-22T10:18:23.440Z,11.75
2017-09-22T10:20:51.334Z,10.70
2017-09-22T10:23:19.704Z,11.50
2017-09-22T10:25:47.211Z,10.00
2017-09-22T10:28:14.715Z,9.30
2017-09-22T10:30:42.215Z,9.67
2017-09-22T10:33:09.735Z,10.07
2017-09-22T10:35:38.202Z,11.33
2017-09-22T10:38:06.118Z,10.33
2017-09-22T10:40:33.627Z,9.10
2017-09-22T10:43:02.502Z,9.77
2017-09-22T10:45:30.005Z,11.77
2017-09-22T10:47:57.510Z,9.20
2017-09-22T10:50:25.315Z,8.80
2017-09-22T10:52:52.855Z,9.00
2017-09-22T10:55:20.378Z,10.37
2017-09-22T10:57:47.911Z,9.70
2017-09-22T11:00:15.428Z,9.00
2017-09-22T11:02:43.345Z,9.60
2017-09-22T11:05:10.867Z,11.47
2017-09-22T11:07:38.369Z,10.03
2017-09-22T11:10:05.882Z,10.87
2017-09-22T11:12:34.299Z,11.43
2017-09-22T11:15:01.807Z,11.00
2017-09-22T11:17:29.727Z,10.70
2017-09-22T11:19:57.230Z,11.30
2017-09-22T11:22:25.140Z,10.70
2017-09-22T11:24:54.178Z,11.70
2017-09-22T11:27:21.735Z,12.17
2017-09-22T11:29:49.224Z,12.43
2017-09-22T11:32:16.791Z,11.20
2017-09-22T11:34:44.340Z,13.07
2017-09-22T11:37:11.846Z,12.17
2017-09-22T11:39:41.313Z,12.33
2017-09-22T11:42:08.831Z,10.57
2017-09-22T11:44:37.228Z,11.90
2017-09-22T11:47:06.902Z,9.80
2017-09-22T11:49:35.559Z,9.80
2017-09-22T11:52:03.115Z,11.57
2017-09-22T11:54:30.629Z,10.83
2017-09-22T11:56:58.549Z,10.23
2017-09-22T11:59:26.056Z,10.23
2017-09-22T12:01:53.971Z,9.80
2017-09-22T12:04:21.558Z,10.20
2017-09-22T12:06:49.079Z,9.40
2017-09-22T12:09:17.065Z,9.90
2017-09-22T12:11:44.570Z,9.13
2017-09-22T12:14:12.455Z,10.30
2017-09-22T12:16:40.000Z,8.80
2017-09-22T12:19:09.471Z,8.57
2017-09-22T12:21:36.962Z,7.90
2017-09-22T12:24:04.482Z,8.03
2017-09-22T12:26:32.944Z,8.40
2017-09-22T12:29:00.475Z,7.80
2017-09-22T12:31:29.963Z,8.10
2017-09-22T12:33:57.859Z,6.80
2017-09-22T12:36:25.409Z,7.60
2017-09-22T12:38:52.934Z,7.30
2017-09-22T12:41:20.852Z,7.77
2017-09-22T12:43:48.351Z,9.33
2017-09-22T12:46:17.187Z,7.53
2017-09-22T12:48:44.715Z,8.13
2017-09-22T12:51:13.513Z,8.07
2017-09-22T12:53:41.038Z,7.37
2017-09-22T12:56:08.558Z,7.87
2017-09-22T12:58:36.065Z,7.13
2017-09-22T13:01:03.971Z,6.50
2017-09-22T13:03:32.401Z,6.20
2017-09-22T13:05:59.914Z,7.00
2017-09-22T13:08:27.413Z,6.20
2017-09-22T13:10:54.919Z,6.60
2017-09-22T13:13:22.409Z,7.07
2017-09-22T13:15:49.907Z,6.33
2017-09-22T13:18:19.748Z,7.00
2017-09-22T13:20:47.278Z,6.40
2017-09-22T13:23:14.760Z,7.77
2017-09-22T13:25:42.275Z,7.70
2017-09-22T13:28:10.167Z,7.13
2017-09-22T13:30:37.687Z,7.17
2017-09-22T13:33:05.198Z,7.83
2017-09-22T13:35:32.696Z,7.47
2017-09-22T13:38:00.182Z,7.70
2017-09-22T13:40:28.090Z,7.00
2017-09-22T13:42:58.015Z,7.67
2017-09-22T13:45:28.636Z,8.27
2017-09-22T13:47:56.124Z,8.47
2017-09-22T13:50:23.646Z,7.70
2017-09-22T13:52:51.169Z,9.77
2017-09-22T13:55:19.795Z,8.53
2017-09-22T13:57:51.700Z,8.10
2017-09-22T14:00:21.563Z,7.10
2017-09-22T14:02:49.131Z,7.70
2017-09-22T14:05:17.904Z,7.63
2017-09-22T14:07:45.407Z,8.07
2017-09-22T14:10:12.928Z,9.17
2017-09-22T14:12:41.691Z,9.00
2017-09-22T14:15:10.015Z,8.70
2017-09-22T14:17:37.507Z,8.67
2017-09-22T14:20:05.406Z,7.90
2017-09-22T14:22:32.911Z,7.30
2017-09-22T14:25:00.399Z,7.50
2017-09-22T14:27:29.137Z,7.97
2017-09-22T14:29:56.648Z,7.50
2017-09-22T14:32:24.476Z,8.40
2017-09-22T14:34:52.939Z,7.97
2017-09-22T14:37:21.059Z,7.90
2017-09-22T14:39:48.795Z,7.80
2017-09-22T14:42:16.289Z,8.00
2017-09-22T14:44:45.683Z,8.27
2017-09-22T14:47:16.985Z,7.80
2017-09-22T14:49:44.490Z,7.53
2017-09-22T14:52:12.008Z,7.27
2017-09-22T14:54:39.499Z,6.83
2017-09-22T14:57:07.004Z,6.50
2017-09-22T14:59:34.500Z,7.70
2017-09-22T15:02:02.411Z,6.93
2017-09-22T15:04:29.900Z,8.00
2017-09-22T15:06:57.407Z,8.77
2017-09-22T15:09:24.905Z,8.90
2017-09-22T15:11:52.537Z,8.50
2017-09-22T15:14:20.019Z,8.53
2017-09-22T15:16:49.468Z,8.93
2017-09-22T15:19:16.963Z,8.77
2017-09-22T15:21:46.426Z,9.33
2017-09-22T15:24:14.334Z,9.07
2017-09-22T15:26:42.114Z,7.60
2017-09-22T15:29:09.601Z,7.17
2017-09-22T15:31:37.138Z,7.40
2017-09-22T15:34:04.676Z,6.90
2017-09-22T15:36:32.190Z,6.57
2017-09-22T15:39:00.063Z,6.73
2017-09-22T15:41:28.435Z,6.20
2017-09-22T15:43:56.321Z,8.20
2017-09-22T15:46:23.840Z,7.17
2017-09-22T15:48:53.725Z,7.40
2017-09-22T15:51:22.979Z,7.50
2017-09-22T15:53:50.515Z,7.50
2017-09-22T15:56:18.995Z,6.60
2017-09-22T15:58:46.906Z,8.20
2017-09-22T16:01:15.385Z,6.30
2017-09-22T16:03:42.865Z,6.50
2017-09-22T16:06:12.743Z,6.33
2017-09-22T16:08:40.232Z,6.10
2017-09-22T16:11:07.761Z,6.60
2017-09-22T16:13:35.268Z,5.90
2017-09-22T16:16:03.487Z,6.33
2017-09-22T16:18:30.987Z,6.03
2017-09-22T16:20:58.503Z,6.33
2017-09-22T16:23:25.996Z,6.30
2017-09-22T16:25:53.495Z,7.33
2017-09-22T16:28:21.384Z,6.53
2017-09-22T16:30:49.831Z,7.03
2017-09-22T16:33:17.731Z,6.60
2017-09-22T16:35:45.261Z,7.00
2017-09-22T16:38:15.180Z,7.80
2017-09-22T16:40:43.075Z,6.93
2017-09-22T16:43:10.614Z,6.77
2017-09-22T16:45:38.492Z,7.30
2017-09-22T16:48:07.955Z,6.87
2017-09-22T16:50:35.451Z,7.53
2017-09-22T16:53:02.967Z,6.33
2017-09-22T16:55:31.403Z,6.20
2017-09-22T16:57:58.939Z,7.50
2017-09-22T17:00:26.436Z,6.97
2017-09-22T17:02:54.764Z,6.87
2017-09-22T17:05:22.663Z,6.50
2017-09-22T17:07:50.154Z,6.90
2017-09-22T17:10:17.677Z,6.73
2017-09-22T17:12:46.512Z,6.73
2017-09-22T17:15:14.027Z,7.80
2017-09-22T17:17:41.507Z,6.73
2017-09-22T17:20:08.992Z,6.60
2017-09-22T17:22:36.515Z,7.10
2017-09-22T17:25:04.017Z,6.67
2017-09-22T17:27:31.923Z,6.30
2017-09-22T17:30:01.180Z,7.30
2017-09-22T17:32:29.059Z,6.77
2017-09-22T17:34:56.968Z,6.70
2017-09-22T17:37:25.454Z,6.80
2017-09-22T17:39:52.968Z,7.03
2017-09-22T17:42:23.530Z,7.00
2017-09-22T17:44:52.183Z,6.57
2017-09-22T17:47:20.663Z,6.83
2017-09-22T17:49:48.727Z,6.30
2017-09-22T17:52:16.232Z,7.53
2017-09-22T17:54:43.751Z,7.40
2017-09-22T17:57:11.241Z,7.73
2017-09-22T17:59:39.824Z,6.80
2017-09-22T18:02:07.863Z,6.73
2017-09-22T18:04:35.378Z,6.97
2017-09-22T18:07:03.099Z,7.63
2017-09-22T18:09:32.572Z,7.17
2017-09-22T18:12:01.527Z,7.30
2017-09-22T18:14:29.707Z,8.60
2017-09-22T18:16:58.362Z,7.87
2017-09-22T18:19:27.892Z,7.83
2017-09-22T18:22:01.674Z,8.50
2017-09-22T18:24:29.982Z,9.23
2017-09-22T18:26:58.563Z,9.43
2017-09-22T18:29:28.476Z,10.20
2017-09-22T18:31:56.127Z,9.47
2017-09-22T18:34:24.919Z,10.77
2017-09-22T18:36:52.762Z,9.50
2017-09-22T18:39:22.118Z,8.47
2017-09-22T18:41:50.051Z,9.47
2017-09-22T18:44:18.512Z,9.20
2017-09-22T18:46:46.628Z,8.63
2017-09-22T18:49:15.152Z,8.40
2017-09-22T18:51:44.358Z,9.70
2017-09-22T18:54:12.091Z,9.67
2017-09-22T18:56:39.747Z,9.10
2017-09-22T18:59:07.542Z,10.33
2017-09-22T19:01:35.432Z,8.27
2017-09-22T19:04:04.034Z,9.20
2017-09-22T19:06:31.690Z,9.10
2017-09-22T19:09:00.571Z,9.43
2017-09-22T19:11:28.101Z,8.03
2017-09-22T19:13:55.594Z,9.63
2017-09-22T19:16:24.014Z,9.60
2017-09-22T19:18:51.656Z,10.10
2017-09-22T19:21:19.494Z,9.60
2017-09-22T19:23:47.183Z,9.40
2017-09-22T19:26:15.082Z,9.27
2017-09-22T19:28:47.131Z,8.82
2017-09-22T19:31:15.020Z,10.03
2017-09-22T19:33:43.635Z,8.90
2017-09-22T19:36:11.222Z,8.65
2017-09-22T19:38:42.031Z,10.20
2017-09-22T19:41:09.591Z,9.80
2017-09-22T19:43:38.002Z,11.12
2017-09-22T19:46:05.563Z,10.35
2017-09-22T19:48:35.027Z,10.00
2017-09-22T19:51:02.522Z,12.20
2017-09-22T19:53:30.047Z,11.10
2017-09-22T19:55:57.621Z,14.18
2017-09-22T19:58:26.160Z,14.95
2017-09-22T20:00:54.645Z,14.95
2017-09-22T20:03:22.158Z,15.15
2017-09-22T20:05:49.703Z,12.93
2017-09-22T20:08:17.651Z,13.88
2017-09-22T20:10:45.151Z,12.90
2017-09-22T20:13:12.702Z,12.35
2017-09-22T20:15:40.202Z,11.77
2017-09-22T20:18:07.736Z,11.82
2017-09-22T20:20:35.242Z,11.38
2017-09-22T20:23:04.584Z,10.32
2017-09-22T20:25:32.103Z,10.60
2017-09-22T20:28:00.020Z,10.88
2017-09-22T20:30:27.522Z,10.35
2017-09-22T20:32:55.464Z,10.68
2017-09-22T20:35:23.028Z,10.63
2017-09-22T20:37:50.563Z,9.95
2017-09-22T20:40:18.108Z,10.05
2017-09-22T20:42:45.636Z,9.15
2017-09-22T20:45:13.190Z,10.23
2017-09-22T20:47:41.117Z,10.40
2017-09-22T20:50:09.588Z,11.75
2017-09-22T20:52:37.109Z,11.15
2017-09-22T20:55:05.013Z,10.25
2017-09-22T20:57:32.549Z,10.10
2017-09-22T21:00:00.051Z,9.40
2017-09-22T21:02:27.584Z,9.40
2017-09-22T21:04:55.078Z,9.63
2017-09-22T21:07:22.636Z,10.40
2017-09-22T21:09:50.172Z,9.70
2017-09-22T21:12:17.688Z,8.88
2017-09-22T21:14:50.053Z,8.95
2017-09-22T21:17:17.547Z,7.80
2017-09-22T21:19:45.104Z,9.25
2017-09-22T21:22:12.628Z,9.40
2017-09-22T21:24:40.629Z,9.75
2017-09-22T21:27:08.122Z,10.02
2017-09-22T21:29:39.915Z,10.23
2017-09-22T21:32:11.512Z,9.30
2017-09-22T21:34:39.065Z,10.57
2017-09-22T21:37:06.594Z,10.43
2017-09-22T21:39:34.127Z,10.98
2017-09-22T21:42:01.679Z,9.20
2017-09-22T21:44:29.544Z,10.20
2017-09-22T21:46:58.049Z,10.35
2017-09-22T21:49:25.931Z,11.77
2017-09-22T21:51:53.510Z,11.63
2017-09-22T21:54:22.602Z,11.48
2017-09-22T21:56:50.504Z,12.43
2017-09-22T21:59:19.575Z,12.10
2017-09-22T22:02:09.493Z,11.20
2017-09-22T22:04:42.808Z,12.02
2017-09-22T22:07:17.085Z,11.80
2017-09-22T22:09:45.183Z,12.37
2017-09-22T22:12:12.921Z,13.05
2017-09-22T22:14:40.597Z,12.15
2017-09-22T22:17:08.323Z,12.37
2017-09-22T22:19:35.923Z,12.35
2017-09-22T22:22:03.982Z,11.20
2017-09-22T22:24:32.509Z,11.88
2017-09-22T22:27:02.086Z,11.93
2017-09-22T22:29:36.841Z,11.15
2017-09-22T22:32:07.119Z,12.65
2017-09-22T22:34:34.637Z,13.38
2017-09-22T22:37:05.702Z,11.77
2017-09-22T22:39:34.238Z,11.38
2017-09-22T22:42:02.581Z,11.82
2017-09-22T22:44:31.697Z,10.70
2017-09-22T22:46:59.303Z,11.50
2017-09-22T22:49:26.903Z,12.77
2017-09-22T22:51:55.395Z,11.82
2017-09-22T22:54:22.983Z,11.85
2017-09-22T22:56:50.650Z,11.82
2017-09-22T22:59:19.298Z,12.07
2017-09-22T23:01:47.315Z,14.43
2017-09-22T23:04:15.215Z,13.45
2017-09-22T23:06:42.860Z,12.45
2017-09-22T23:09:11.816Z,12.73
2017-09-22T23:11:41.686Z,12.55
2017-09-22T23:14:09.857Z,12.73
2017-09-22T23:16:37.456Z,12.02
2017-09-22T23:19:05.125Z,11.05
2017-09-22T23:21:32.773Z,11.55
2017-09-22T23:24:01.146Z,11.43
2017-09-22T23:26:30.012Z,10.85
2017-09-22T23:28:57.691Z,11.90
2017-09-22T23:31:33.344Z,11.68
2017-09-22T23:34:02.403Z,12.15
2017-09-22T23:36:30.003Z,13.45
2017-09-22T23:38:58.910Z,12.15
2017-09-22T23:41:26.502Z,12.55
2017-09-22T23:43:55.194Z,12.20
2017-09-22T23:46:23.668Z,13.60
2017-09-22T23:48:53.271Z,14.10
2017-09-22T23:51:20.853Z,12.95
2017-09-22T23:53:50.191Z,13.98
2017-09-22T23:56:18.123Z,13.35
2017-09-22T23:58:45.764Z,13.45
